Time;durP1;ratioP1;P1;durP2;ratioP2;P2;SDS_P1;SDS_P2;PMS_P1;PMS_P2;Temp;Humidity;BMP_temperature;BMP_pressure;BME280_temperature;BME280_humidity;BME280_pressure;Samples;Min_cycle;Max_cycle;Signal;HPM_P1;HPM_P2
2023/07/30 00:02:35;;;;;;;4.30;3.50;;;;;;;16.57;96.39;98655.34;435567;1256;139713;-64
2023/07/30 00:12:42;;;;;;;3.10;2.90;;;;;;;16.55;97.03;98662.45;435355;1256;140377;-65
2023/07/30 00:22:47;;;;;;;5.50;3.70;;;;;;;16.59;97.57;98674.19;435404;1253;139034;-63
2023/07/30 00:32:53;;;;;;;5.70;4.40;;;;;;;16.63;97.82;98676.99;434928;1254;140941;-65
2023/07/30 00:42:59;;;;;;;5.30;3.50;;;;;;;16.67;98.02;98680.68;434666;1253;140218;-64
2023/07/30 00:53:05;;;;;;;5.60;3.50;;;;;;;16.67;98.17;98683.09;435200;1253;139729;-65
2023/07/30 01:03:11;;;;;;;4.20;3.10;;;;;;;16.69;98.34;98685.42;435303;1253;140351;-65
2023/07/30 01:13:18;;;;;;;3.50;3.00;;;;;;;16.67;98.45;98694.19;435070;1253;139949;-64
2023/07/30 01:23:24;;;;;;;15.50;3.70;;;;;;;16.69;98.61;98699.73;435558;1256;139078;-64
2023/07/30 01:33:31;;;;;;;2.80;2.50;;;;;;;16.62;98.93;98711.17;434969;1253;140111;-63
2023/07/30 01:43:37;;;;;;;2.80;2.60;;;;;;;16.56;98.90;98713.23;435093;1253;140444;-63
2023/07/30 01:53:43;;;;;;;2.40;2.20;;;;;;;16.54;99.04;98712.33;435077;1253;139503;-63
2023/07/30 02:03:49;;;;;;;3.40;2.90;;;;;;;16.57;99.17;98718.60;434725;1254;141273;-63
2023/07/30 02:13:56;;;;;;;4.20;3.90;;;;;;;16.67;99.36;98723.80;435267;1256;142077;-63
2023/07/30 02:24:02;;;;;;;6.50;6.00;;;;;;;16.75;99.20;98732.20;435158;1256;139146;-64
2023/07/30 02:34:08;;;;;;;7.00;6.40;;;;;;;16.77;99.04;98735.79;434830;1256;140402;-64
2023/07/30 02:44:14;;;;;;;8.10;7.20;;;;;;;16.83;99.17;98754.59;434892;1253;139659;-63
2023/07/30 02:54:20;;;;;;;7.00;6.40;;;;;;;16.86;99.13;98758.95;435052;1256;140084;-64
2023/07/30 03:04:26;;;;;;;7.70;6.50;;;;;;;16.85;99.09;98750.33;435305;1253;139504;-64
2023/07/30 03:14:32;;;;;;;8.10;7.40;;;;;;;16.89;99.12;98745.33;434916;1256;139567;-64
2023/07/30 03:24:38;;;;;;;8.70;7.50;;;;;;;16.92;99.08;98756.39;434938;1253;139258;-64
2023/07/30 03:34:44;;;;;;;8.10;7.30;;;;;;;16.87;99.29;98762.37;434813;1256;139142;-64
2023/07/30 03:44:50;;;;;;;8.90;8.00;;;;;;;16.96;99.62;98769.27;435015;1253;139329;-63
2023/07/30 03:54:56;;;;;;;8.70;7.90;;;;;;;17.01;99.64;98776.83;435040;1252;140651;-63
2023/07/30 04:05:01;;;;;;;10.50;8.50;;;;;;;17.04;99.53;98782.95;435079;1253;140570;-63
2023/07/30 04:15:10;;;;;;;;;;;;;;;16.98;99.81;98794.80;434936;1256;140192;-63
2023/07/30 04:25:15;;;;;;;12.70;11.40;;;;;;;17.01;100.00;98803.88;435209;1256;125745;-62
2023/07/30 04:35:21;;;;;;;15.70;13.60;;;;;;;17.02;100.00;98814.77;435497;1256;139914;-64
2023/07/30 04:45:27;;;;;;;13.70;12.30;;;;;;;17.06;100.00;98826.55;434955;1254;141886;-63
2023/07/30 04:55:33;;;;;;;13.10;11.90;;;;;;;17.08;100.00;98829.93;434736;1253;142987;-63
2023/07/30 05:05:39;;;;;;;14.40;12.90;;;;;;;17.11;100.00;98843.20;435432;1254;139501;-64
2023/07/30 05:15:45;;;;;;;15.10;13.60;;;;;;;17.10;100.00;98853.71;435162;1253;140275;-64
2023/07/30 05:25:51;;;;;;;13.00;11.80;;;;;;;17.22;100.00;98863.09;434794;1254;141567;-64
2023/07/30 05:35:57;;;;;;;12.20;11.00;;;;;;;17.22;99.84;98867.67;435021;1256;140872;-64
2023/07/30 05:46:03;;;;;;;11.50;10.30;;;;;;;17.53;99.78;98871.59;435269;1256;140905;-64
2023/07/30 05:56:10;;;;;;;10.20;9.40;;;;;;;18.15;98.61;98860.52;436413;1253;140736;-63
2023/07/30 06:06:16;;;;;;;8.70;8.00;;;;;;;19.85;96.50;98869.21;435789;1256;139748;-64
2023/07/30 06:16:22;;;;;;;9.50;8.60;;;;;;;19.76;92.28;98873.20;434869;1253;139938;-64
2023/07/30 06:26:28;;;;;;;7.70;7.00;;;;;;;19.33;91.66;98879.16;434963;1256;139272;-64
2023/07/30 06:36:34;;;;;;;7.70;7.00;;;;;;;19.62;92.21;98881.34;434933;1256;139715;-63
2023/07/30 06:46:40;;;;;;;8.50;7.80;;;;;;;20.35;89.58;98886.57;434841;1256;141675;-63
2023/07/30 06:56:46;;;;;;;8.60;7.70;;;;;;;19.98;88.62;98884.88;434895;1254;139984;-63
2023/07/30 07:06:51;;;;;;;8.70;7.70;;;;;;;19.92;88.51;98896.85;435748;1256;140729;-64
2023/07/30 07:16:57;;;;;;;9.60;8.60;;;;;;;20.09;88.49;98911.80;435734;1256;139442;-62
2023/07/30 07:27:04;;;;;;;7.30;6.60;;;;;;;20.62;87.59;98925.80;435421;1256;139637;-64
2023/07/30 07:37:10;;;;;;;8.60;6.40;;;;;;;22.04;84.57;98928.36;434959;1256;143388;-63
2023/07/30 07:47:16;;;;;;;7.00;6.00;;;;;;;21.37;82.80;98928.05;435505;1255;139748;-65
2023/07/30 07:57:21;;;;;;;4.20;3.90;;;;;;;23.80;83.42;98923.48;435092;1256;140797;-63
2023/07/30 08:07:27;;;;;;;4.60;3.70;;;;;;;32.62;70.64;98909.80;434820;1256;139933;-63
2023/07/30 08:17:33;;;;;;;4.50;4.10;;;;;;;32.45;60.16;98909.05;434959;1256;140378;-64
2023/07/30 08:27:39;;;;;;;7.30;4.60;;;;;;;31.27;58.93;98916.94;434881;1254;138879;-64
2023/07/30 08:37:45;;;;;;;4.10;3.70;;;;;;;29.95;57.20;98928.10;434946;1258;140330;-64
2023/07/30 08:47:50;;;;;;;6.40;4.40;;;;;;;29.48;57.17;98936.39;434863;1256;138591;-63
2023/07/30 08:57:57;;;;;;;7.60;4.90;;;;;;;29.54;55.76;98937.19;434882;1254;138884;-63
2023/07/30 09:08:03;;;;;;;4.40;4.10;;;;;;;29.10;55.60;98943.55;434701;1255;139186;-66
2023/07/30 09:18:09;;;;;;;3.80;3.50;;;;;;;28.61;55.35;98944.17;435452;1256;139031;-66
2023/07/30 09:28:15;;;;;;;4.60;4.20;;;;;;;28.56;55.77;98936.23;435442;1256;140549;-64
2023/07/30 09:38:22;;;;;;;3.30;3.00;;;;;;;28.88;54.82;98931.98;435141;1257;138445;-64
2023/07/30 09:48:28;;;;;;;3.70;3.40;;;;;;;28.70;54.29;98924.20;435041;1254;138801;-65
2023/07/30 09:58:37;;;;;;;6.00;3.00;;;;;;;27.98;54.26;98915.81;435587;1257;139394;-64
2023/07/30 10:08:44;;;;;;;3.60;3.30;;;;;;;27.51;54.85;98908.52;435512;1254;141227;-64
2023/07/30 10:18:58;;;;;;;3.70;3.40;;;;;;;27.39;55.18;98899.76;434992;1257;138928;-65
2023/07/30 10:29:14;;;;;;;4.10;2.40;;;;;;;27.54;54.77;98895.36;435421;1257;138893;-63
2023/07/30 10:39:21;;;;;;;4.10;3.00;;;;;;;27.50;54.38;98880.32;435754;1257;138551;-63
2023/07/30 10:49:27;;;;;;;4.20;3.20;;;;;;;27.47;53.94;98861.26;435793;1257;139014;-63
2023/07/30 10:59:37;;;;;;;3.20;2.90;;;;;;;27.03;54.42;98859.53;435326;1258;139589;-64
2023/07/30 11:09:43;;;;;;;2.70;2.40;;;;;;;27.37;54.32;98852.80;435224;1257;140695;-63
2023/07/30 11:19:49;;;;;;;3.80;2.70;;;;;;;27.64;53.53;98853.59;434944;1257;139914;-64
2023/07/30 11:29:59;;;;;;;3.00;1.90;;;;;;;27.58;52.81;98852.92;435156;1257;138489;-63
2023/07/30 11:40:07;;;;;;;1.50;1.40;;;;;;;27.67;52.48;98851.89;435087;1257;140018;-63
2023/07/30 11:50:13;;;;;;;1.30;1.20;;;;;;;27.83;51.85;98845.73;435512;1254;139078;-64
2023/07/30 12:00:21;;;;;;;2.40;1.00;;;;;;;27.95;50.77;98846.26;435842;1257;138576;-64
2023/07/30 12:10:27;;;;;;;1.40;1.30;;;;;;;28.15;49.89;98848.75;436443;1257;138582;-64
2023/07/30 12:20:35;;;;;;;1.50;1.30;;;;;;;28.12;49.49;98849.38;435746;1257;139734;-63
2023/07/30 12:30:41;;;;;;;2.30;0.80;;;;;;;28.21;49.42;98850.94;435662;1257;138369;-62
2023/07/30 12:40:47;;;;;;;2.70;1.10;;;;;;;28.61;48.26;98840.21;434901;1254;138936;-63
2023/07/30 12:50:53;;;;;;;2.10;0.90;;;;;;;28.84;45.31;98827.98;435542;1254;138989;-63
2023/07/30 13:01:03;;;;;;;0.90;0.90;;;;;;;28.59;45.20;98821.75;435695;1254;138818;-63
2023/07/30 13:11:09;;;;;;;2.20;1.40;;;;;;;28.46;45.51;98815.69;435773;1254;139706;-63
2023/07/30 13:21:15;;;;;;;0.90;0.90;;;;;;;28.56;45.07;98810.78;435373;1254;141110;-63
2023/07/30 13:31:22;;;;;;;2.00;0.90;;;;;;;28.31;44.85;98799.55;434943;1254;139545;-65
2023/07/30 13:41:26;;;;;;;;;;;;;;;28.10;45.06;98790.33;435052;1256;138341;-65
2023/07/30 13:51:32;;;;;;;1.20;1.10;;;;;;;27.97;44.88;98792.45;435316;1254;126462;-65
2023/07/30 14:01:37;;;;;;;;;;;;;;;27.88;44.87;98788.52;435607;1255;139593;-65
2023/07/30 14:11:46;;;;;;;1.40;1.00;;;;;;;27.90;44.58;98783.06;435542;1256;127584;-65
2023/07/30 14:21:52;;;;;;;1.20;0.90;;;;;;;28.07;44.73;98778.66;435323;1254;139930;-65
2023/07/30 14:31:58;;;;;;;1.00;0.90;;;;;;;28.10;44.24;98773.77;435011;1255;138906;-64
2023/07/30 14:42:06;;;;;;;0.60;0.60;;;;;;;27.84;44.30;98768.92;435371;1257;138583;-65
2023/07/30 14:52:12;;;;;;;3.80;0.90;;;;;;;27.24;44.10;98774.64;435136;1257;139668;-65
2023/07/30 15:02:18;;;;;;;2.80;0.90;;;;;;;26.78;44.17;98763.92;435062;1255;139230;-65
2023/07/30 15:12:23;;;;;;;1.10;1.00;;;;;;;26.81;44.69;98757.51;435307;1253;138882;-65
2023/07/30 15:22:29;;;;;;;0.80;0.80;;;;;;;27.25;44.59;98756.42;435027;1254;140857;-65
2023/07/30 15:32:44;;;;;;;1.10;1.00;;;;;;;27.32;44.16;98758.54;435403;1254;138633;-65
2023/07/30 15:42:50;;;;;;;0.90;0.90;;;;;;;26.95;43.83;98759.34;435279;1254;138585;-65
2023/07/30 15:52:56;;;;;;;1.00;0.90;;;;;;;26.49;44.47;98754.59;435091;1253;138789;-64
2023/07/30 16:03:04;;;;;;;2.10;1.20;;;;;;;26.48;44.73;98751.41;434913;1254;138914;-64
2023/07/30 16:13:10;;;;;;;1.60;1.50;;;;;;;26.39;45.06;98767.73;435496;1253;139080;-65
2023/07/30 16:23:17;;;;;;;1.00;0.90;;;;;;;26.33;44.90;98768.04;434998;1253;139048;-64
2023/07/30 16:33:23;;;;;;;2.20;1.20;;;;;;;25.79;45.20;98771.84;434839;1253;139538;-63
2023/07/30 16:43:29;;;;;;;2.10;1.10;;;;;;;25.09;46.89;98777.60;434928;1256;138603;-64
2023/07/30 16:53:34;;;;;;;1.10;1.00;;;;;;;24.36;48.84;98793.05;435407;1253;138500;-65
2023/07/30 17:03:42;;;;;;;2.20;1.20;;;;;;;23.81;50.73;98800.25;435260;1254;138510;-66
2023/07/30 17:13:46;;;;;;;;;;;;;;;23.46;51.83;98815.21;435023;1254;139475;-66
2023/07/30 17:23:52;;;;;;;1.30;1.10;;;;;;;23.18;52.69;98826.79;435232;1254;125262;-66
2023/07/30 17:33:58;;;;;;;1.30;1.20;;;;;;;22.97;52.59;98825.83;435300;1253;139244;-64
2023/07/30 17:44:05;;;;;;;2.60;1.30;;;;;;;22.77;52.79;98826.00;434894;1253;139081;-64
2023/07/30 17:54:11;;;;;;;1.60;1.30;;;;;;;22.47;53.52;98818.31;437001;1253;138726;-66
2023/07/30 18:04:17;;;;;;;2.90;1.70;;;;;;;22.16;54.45;98798.98;435037;1253;138393;-65
2023/07/30 18:14:22;;;;;;;3.10;1.50;;;;;;;21.86;55.82;98798.76;434820;1253;138965;-66
2023/07/30 18:24:29;;;;;;;1.90;1.30;;;;;;;21.51;56.74;98812.27;434855;1256;140186;-66
2023/07/30 18:34:37;;;;;;;6.10;0.90;;;;;;;21.15;56.87;98869.19;434674;1253;138854;-66
2023/07/30 18:44:43;;;;;;;0.40;0.40;;;;;;;20.79;56.09;98893.46;434921;1256;140501;-67
2023/07/30 18:54:49;;;;;;;0.80;0.60;;;;;;;20.43;56.29;98879.80;435326;1253;138529;-65
2023/07/30 19:04:55;;;;;;;1.20;0.70;;;;;;;20.14;56.84;98895.76;435476;1253;140042;-65
2023/07/30 19:15:01;;;;;;;2.50;1.10;;;;;;;19.93;57.81;98903.84;436185;1256;140166;-66
2023/07/30 19:25:10;;;;;;;1.50;1.30;;;;;;;19.72;58.12;98898.22;435637;1254;139703;-66
2023/07/30 19:35:16;;;;;;;3.00;0.50;;;;;;;19.53;59.29;98903.66;435400;1253;220154;-65
2023/07/30 19:45:22;;;;;;;0.80;0.50;;;;;;;19.26;60.53;98916.30;435603;1254;138814;-66
2023/07/30 19:55:28;;;;;;;3.80;0.60;;;;;;;19.04;61.54;98925.98;435210;1256;139632;-66
2023/07/30 20:05:36;;;;;;;2.00;0.70;;;;;;;18.79;62.47;98926.83;434772;1254;140547;-67
2023/07/30 20:15:42;;;;;;;1.20;0.90;;;;;;;18.50;63.00;98930.88;435116;1253;139601;-67
2023/07/30 20:25:48;;;;;;;1.40;0.60;;;;;;;18.30;63.82;98929.06;435073;1256;140530;-67
2023/07/30 20:35:54;;;;;;;1.20;0.80;;;;;;;18.15;64.66;98918.95;434833;1256;138953;-68
2023/07/30 20:45:59;;;;;;;1.70;0.80;;;;;;;18.09;65.86;98919.08;434855;1254;140326;-67
2023/07/30 20:56:06;;;;;;;1.40;1.20;;;;;;;17.97;66.59;98918.86;434950;1253;139505;-68
2023/07/30 21:06:12;;;;;;;5.20;1.30;;;;;;;17.76;67.51;98919.27;435443;1256;140047;-67
2023/07/30 21:16:18;;;;;;;2.30;1.20;;;;;;;17.48;67.67;98924.11;434695;1253;139290;-67
2023/07/30 21:26:24;;;;;;;2.30;1.20;;;;;;;17.29;68.34;98922.33;434836;1253;141843;-67
2023/07/30 21:36:30;;;;;;;3.60;1.10;;;;;;;17.24;68.90;98923.95;434744;1256;139501;-67
2023/07/30 21:46:36;;;;;;;1.20;1.10;;;;;;;17.28;69.74;98929.41;435335;1253;140397;-67
2023/07/30 21:56:42;;;;;;;2.60;1.80;;;;;;;17.28;70.08;98931.13;434975;1253;139799;-67
2023/07/30 22:06:48;;;;;;;1.90;1.10;;;;;;;17.29;70.36;98936.16;435099;1254;139241;-63
2023/07/30 22:16:54;;;;;;;3.10;1.60;;;;;;;17.25;70.60;98933.20;435706;1253;139148;-65
2023/07/30 22:27:00;;;;;;;1.90;1.10;;;;;;;17.22;71.03;98929.04;435243;1253;140773;-64
2023/07/30 22:37:06;;;;;;;2.10;1.20;;;;;;;17.22;71.81;98926.10;435130;1256;140228;-65
2023/07/30 22:47:12;;;;;;;3.90;1.40;;;;;;;17.17;72.18;98923.23;435809;1253;139902;-65
2023/07/30 22:57:18;;;;;;;3.60;1.40;;;;;;;17.07;72.28;98923.02;435107;1253;138986;-65
2023/07/30 23:07:24;;;;;;;1.50;1.20;;;;;;;17.03;72.84;98932.64;435167;1256;139987;-64
2023/07/30 23:17:30;;;;;;;1.10;1.00;;;;;;;16.94;73.49;98928.70;437013;1253;139061;-81
2023/07/30 23:27:36;;;;;;;1.10;1.00;;;;;;;16.94;74.06;98912.40;438421;1256;139052;-69
2023/07/30 23:37:43;;;;;;;1.40;1.30;;;;;;;17.01;74.88;98909.42;437336;1253;139150;-75
2023/07/30 23:47:48;;;;;;;1.60;1.40;;;;;;;17.03;75.23;98908.95;436938;1256;139562;-69
2023/07/30 23:57:54;;;;;;;2.80;1.50;;;;;;;17.00;75.77;98917.83;435974;1253;139014;-69
